Time;durP1;ratioP1;P1;durP2;ratioP2;P2;SDS_P1;SDS_P2;PMS_P1;PMS_P2;Temp;Humidity;BMP_temperature;BMP_pressure;BME280_temperature;BME280_humidity;BME280_pressure;Samples;Min_cycle;Max_cycle;Signal;HPM_P1;HPM_P2
2022/11/09 00:01:28;;;;;;;;;2.75;1.00;;;;;21.34;45.69;100272.31;5058128;28;45855;-54
2022/11/09 00:03:58;;;;;;;;;2.00;2.00;;;;;21.34;45.59;100278.44;5056390;28;45798;-55
2022/11/09 00:06:25;;;;;;;;;2.00;2.00;;;;;21.33;45.80;100276.75;5057022;28;45437;-55
2022/11/09 00:08:50;;;;;;;;;4.00;1.00;;;;;21.33;45.44;100276.75;5067077;28;45346;-55
2022/11/09 00:11:16;;;;;;;;;1.25;1.00;;;;;21.31;45.49;100282.16;5068920;28;47355;-55
2022/11/09 00:13:42;;;;;;;;;1.25;1.00;;;;;21.31;45.43;100281.28;5057621;28;45442;-54
2022/11/09 00:16:10;;;;;;;;;2.25;2.00;;;;;21.33;45.65;100294.38;5058356;28;45415;-54
2022/11/09 00:18:37;;;;;;;;;2.00;1.25;;;;;21.33;45.80;100294.38;5060901;28;45474;-55
2022/11/09 00:21:06;;;;;;;;;1.00;1.00;;;;;21.32;45.42;100306.69;5062352;28;45468;-55
2022/11/09 00:23:31;;;;;;;;;3.75;2.00;;;;;21.29;45.38;100297.22;5058330;28;45415;-55
2022/11/09 00:26:05;;;;;;;;;3.00;1.00;;;;;21.28;45.30;100292.88;5057181;28;45252;-55
2022/11/09 00:28:31;;;;;;;;;2.00;2.00;;;;;21.29;45.51;100297.22;5057076;28;45461;-55
2022/11/09 00:31:05;;;;;;;;;1.00;1.00;;;;;21.30;45.50;100287.50;5056865;28;46139;-55
2022/11/09 00:33:31;;;;;;;;;2.50;1.00;;;;;21.27;45.63;100243.75;5056974;28;45393;-55
2022/11/09 00:35:56;;;;;;;;;2.75;2.00;;;;;21.28;45.55;100240.19;5057016;28;45442;-55
2022/11/09 00:38:22;;;;;;;;;1.00;1.00;;;;;21.27;45.54;100241.13;5057489;28;45351;-55
2022/11/09 00:40:47;;;;;;;;;1.00;1.00;;;;;21.27;45.54;100242.94;5056733;28;46580;-53
2022/11/09 00:43:13;;;;;;;;;1.25;1.25;;;;;21.26;45.52;100252.59;5056656;28;45383;-55
2022/11/09 00:45:41;;;;;;;;;2.00;1.00;;;;;21.26;45.84;100255.25;5057048;28;45204;-55
2022/11/09 00:48:07;;;;;;;;;1.75;1.75;;;;;21.24;45.87;100243.97;5057619;28;45578;-55
2022/11/09 00:50:32;;;;;;;;;1.00;1.00;;;;;21.24;45.66;100248.41;5058771;28;46196;-55
2022/11/09 00:52:58;;;;;;;;;2.00;2.00;;;;;21.25;45.71;100250.09;5068272;28;58050;-55
2022/11/09 00:55:24;;;;;;;;;1.00;1.00;;;;;21.24;45.60;100243.97;5083665;28;45810;-56
2022/11/09 00:57:50;;;;;;;;;2.00;2.00;;;;;21.23;45.50;100250.16;5065829;28;45364;-55
2022/11/09 01:00:17;;;;;;;;;0.75;0.75;;;;;21.23;45.80;100252.81;5075679;28;45280;-54
2022/11/09 01:02:42;;;;;;;;;2.00;1.00;;;;;21.22;45.89;100247.66;5075490;28;45322;-56
2022/11/09 01:05:07;;;;;;;;;5.00;1.75;;;;;21.22;45.86;100252.91;5056062;28;59564;-55
2022/11/09 01:07:33;;;;;;;;;3.00;1.00;;;;;21.20;45.90;100265.34;5056763;28;45350;-55
2022/11/09 01:09:58;;;;;;;;;2.75;2.00;;;;;21.20;45.40;100271.50;5056473;28;45323;-55
2022/11/09 01:12:23;;;;;;;;;2.00;1.00;;;;;21.17;45.75;100277.78;5056717;28;45153;-55
2022/11/09 01:14:49;;;;;;;;;3.00;1.75;;;;;21.20;45.99;100275.91;5056391;28;46974;-55
2022/11/09 01:17:14;;;;;;;;;1.00;1.00;;;;;21.18;45.75;100276.00;5055436;28;45565;-55
2022/11/09 01:19:39;;;;;;;;;2.00;2.00;;;;;21.17;45.97;100277.78;5056261;28;47048;-54
2022/11/09 01:22:05;;;;;;;;;1.25;1.25;;;;;21.18;45.76;100273.38;5058547;28;47110;-54
2022/11/09 01:24:30;;;;;;;;;1.00;1.00;;;;;21.15;46.26;100278.84;5057139;28;54267;-53
2022/11/09 01:26:55;;;;;;;;;3.75;1.00;;;;;21.15;45.95;100278.84;5058672;28;45250;-54
2022/11/09 01:29:20;;;;;;;;;1.75;1.50;;;;;21.16;45.77;100277.91;5076853;28;49899;-55
2022/11/09 01:31:47;;;;;;;;;2.50;2.00;;;;;21.13;45.99;100281.59;5060352;28;45315;-55
2022/11/09 01:34:12;;;;;;;;;3.50;1.50;;;;;21.14;46.08;100296.47;5055654;28;45389;-55
2022/11/09 01:36:38;;;;;;;;;1.50;1.00;;;;;21.15;46.12;100289.38;5055814;28;50825;-55
2022/11/09 01:39:03;;;;;;;;;1.75;1.75;;;;;21.12;46.20;100295.72;5056088;28;47380;-55
2022/11/09 01:41:28;;;;;;;;;1.75;1.00;;;;;21.12;46.17;100305.38;5055940;28;57093;-59
2022/11/09 01:44:05;;;;;;;;;1.00;1.00;;;;;21.13;46.21;100312.34;5054911;28;45804;-55
2022/11/09 01:46:47;;;;;;;;;2.50;1.00;;;;;21.12;45.73;100315.94;5056362;28;45429;-56
2022/11/09 01:49:18;;;;;;;;;2.00;1.00;;;;;21.12;46.01;100315.94;5056039;28;46180;-55
2022/11/09 01:51:48;;;;;;;;;0.00;0.00;;;;;21.13;46.16;100312.34;5055959;28;47413;-55
2022/11/09 01:54:24;;;;;;;;;2.00;2.00;;;;;21.12;45.99;100314.16;5055363;28;45336;-55
2022/11/09 01:56:53;;;;;;;;;1.00;1.00;;;;;21.11;45.85;100320.38;5059169;28;45499;-55
2022/11/09 01:59:26;;;;;;;;;1.00;1.00;;;;;21.11;45.94;100315.09;5057478;28;47452;-54
2022/11/09 02:01:52;;;;;;;;;1.75;1.75;;;;;21.11;45.93;100330.06;5078111;28;45299;-53
2022/11/09 02:04:33;;;;;;;;;2.00;2.00;;;;;21.10;46.34;100329.22;5069099;28;45444;-55
2022/11/09 02:06:59;;;;;;;;;1.25;1.00;;;;;21.09;46.47;100326.69;5057167;28;45371;-55
2022/11/09 02:09:49;;;;;;;;;1.00;1.00;;;;;21.09;46.10;100332.78;5055637;28;45336;-55
2022/11/09 02:12:17;;;;;;;;;1.75;1.75;;;;;21.08;46.23;100325.00;5055826;28;45883;-55
2022/11/09 02:14:43;;;;;;;;;1.00;1.00;;;;;21.09;46.15;100329.31;5055874;28;45311;-55
2022/11/09 02:17:10;;;;;;;;;2.50;1.00;;;;;21.09;46.30;100340.69;5055947;28;45523;-54
2022/11/09 02:19:35;;;;;;;;;2.00;1.00;;;;;21.08;46.17;100339.00;5055552;28;46382;-55
2022/11/09 02:22:01;;;;;;;;;2.00;1.50;;;;;21.07;46.30;100329.41;5055590;28;53017;-54
2022/11/09 02:24:27;;;;;;;;;1.00;1.00;;;;;21.08;46.07;100328.47;5056031;28;45333;-54
2022/11/09 02:26:53;;;;;;;;;1.00;1.00;;;;;21.07;46.04;100325.94;5056007;28;45628;-55
2022/11/09 02:29:23;;;;;;;;;1.00;1.00;;;;;21.07;46.31;100323.31;5055659;28;46375;-53
2022/11/09 02:31:54;;;;;;;;;1.00;1.00;;;;;21.05;46.43;100320.78;5054720;28;45925;-55
2022/11/09 02:34:20;;;;;;;;;1.75;1.75;;;;;21.07;45.97;100324.13;5079059;28;44852;-55
2022/11/09 02:36:46;;;;;;;;;1.50;1.00;;;;;21.05;46.23;100317.28;5082895;28;45227;-54
2022/11/09 02:39:14;;;;;;;;;1.00;1.00;;;;;21.04;45.83;100321.72;5064437;28;45414;-55
2022/11/09 02:41:50;;;;;;;;;3.00;1.00;;;;;21.06;46.21;100330.34;5082957;28;45080;-54
2022/11/09 02:44:17;;;;;;;;;2.00;1.25;;;;;21.05;46.46;100328.69;5082509;28;44720;-56
2022/11/09 02:46:43;;;;;;;;;3.75;1.00;;;;;21.06;45.94;100337.44;5072335;28;45162;-56
2022/11/09 02:49:08;;;;;;;;;2.00;1.00;;;;;21.05;46.04;100331.31;5083064;28;46102;-54
2022/11/09 02:51:34;;;;;;;;;0.75;0.75;;;;;21.06;45.98;100326.88;5059326;28;45268;-53
2022/11/09 02:53:59;;;;;;;;;1.00;1.00;;;;;21.04;45.86;100329.63;5058872;28;50874;-53
2022/11/09 02:56:24;;;;;;;;;0.00;0.00;;;;;21.04;46.35;100336.69;5070554;28;50619;-54
2022/11/09 02:58:50;;;;;;;;;1.00;1.00;;;;;21.03;46.17;100340.25;5079536;28;56359;-54
2022/11/09 03:01:15;;;;;;;;;2.75;1.00;;;;;21.02;46.52;100344.69;5081653;28;50252;-54
2022/11/09 03:03:40;;;;;;;;;1.00;1.00;;;;;21.04;46.45;100349.84;5076071;28;45292;-54
2022/11/09 03:06:06;;;;;;;;;0.00;0.00;;;;;21.03;45.93;100350.78;5061323;28;48385;-55
2022/11/09 03:08:31;;;;;;;;;0.75;0.75;;;;;21.04;46.22;100357.75;5060701;28;46092;-54
2022/11/09 03:10:58;;;;;;;;;1.75;1.50;;;;;21.01;46.51;100350.91;5078936;28;48418;-55
2022/11/09 03:13:23;;;;;;;;;1.00;1.00;;;;;21.01;46.28;100356.16;5079858;28;45374;-55
2022/11/09 03:15:49;;;;;;;;;1.75;1.75;;;;;21.01;46.30;100357.00;5082105;28;44903;-53
2022/11/09 03:18:14;;;;;;;;;1.00;1.00;;;;;21.01;46.04;100356.16;5064504;28;69699;-56
2022/11/09 03:20:39;;;;;;;;;1.75;1.00;;;;;21.00;46.41;100355.31;5058428;28;45306;-55
2022/11/09 03:23:05;;;;;;;;;1.00;1.00;;;;;21.00;46.37;100354.47;5058615;28;46154;-54
2022/11/09 03:25:30;;;;;;;;;0.00;0.00;;;;;20.98;45.92;100353.72;5058668;28;45641;-56
2022/11/09 03:28:00;;;;;;;;;0.75;0.75;;;;;20.98;46.07;100353.72;5058249;28;46322;-59
2022/11/09 03:30:26;;;;;;;;;1.00;0.00;;;;;20.99;46.34;100358.91;5057808;28;45692;-54
2022/11/09 03:32:58;;;;;;;;;2.25;0.50;;;;;20.96;46.31;100345.94;5061897;28;45303;-60
2022/11/09 03:35:23;;;;;;;;;1.00;1.00;;;;;20.97;46.42;100355.53;5062574;28;45392;-55
2022/11/09 03:37:48;;;;;;;;;0.00;0.00;;;;;20.99;46.12;100358.06;5063921;28;46129;-55
2022/11/09 03:40:14;;;;;;;;;0.50;0.50;;;;;20.96;46.33;100361.75;5060131;28;58427;-55
2022/11/09 03:42:43;;;;;;;;;1.00;1.00;;;;;20.96;46.51;100363.50;5057632;28;51428;-55
2022/11/09 03:45:09;;;;;;;;;1.00;1.00;;;;;20.97;46.48;100365.22;5058505;28;45309;-55
2022/11/09 03:47:34;;;;;;;;;1.00;1.00;;;;;20.95;46.45;100373.22;5058102;28;47630;-55
2022/11/09 03:49:59;;;;;;;;;0.75;0.75;;;;;20.95;46.09;100362.69;5059311;28;58262;-54
2022/11/09 03:52:25;;;;;;;;;1.00;1.00;;;;;20.96;46.15;100371.41;5079486;28;56862;-54
2022/11/09 03:54:50;;;;;;;;;0.25;0.25;;;;;20.97;46.28;100371.34;5067644;28;44897;-54
2022/11/09 03:57:15;;;;;;;;;1.00;1.00;;;;;20.95;46.11;100367.09;5056948;28;62735;-55
2022/11/09 03:59:40;;;;;;;;;3.00;1.00;;;;;20.96;46.06;100369.66;5056740;28;67663;-54
2022/11/09 04:02:06;;;;;;;;;1.25;1.00;;;;;20.96;46.01;100374.06;5058182;28;45346;-55
2022/11/09 04:04:31;;;;;;;;;1.00;1.00;;;;;20.94;46.21;100373.34;5057823;28;47258;-55
2022/11/09 04:06:56;;;;;;;;;2.00;0.00;;;;;20.94;46.30;100376.78;5065200;28;57314;-55
2022/11/09 04:09:21;;;;;;;;;2.00;0.00;;;;;20.94;46.35;100375.97;5071907;28;58914;-57
2022/11/09 04:11:47;;;;;;;;;0.00;0.00;;;;;20.93;46.15;100376.91;5063376;28;45454;-55
2022/11/09 04:14:12;;;;;;;;;1.00;1.00;;;;;20.92;45.89;100389.22;5057771;28;45488;-55
2022/11/09 04:16:38;;;;;;;;;0.00;0.00;;;;;20.94;46.29;100391.78;5057093;28;56123;-55
2022/11/09 04:19:03;;;;;;;;;0.50;0.50;;;;;20.91;45.84;100387.53;5057495;28;45312;-55
2022/11/09 04:21:28;;;;;;;;;0.00;0.00;;;;;20.92;46.05;100391.03;5057527;28;45388;-54
2022/11/09 04:23:54;;;;;;;;;1.25;1.00;;;;;20.89;46.11;100394.66;5057178;28;51889;-54
2022/11/09 04:26:19;;;;;;;;;0.00;0.00;;;;;20.89;46.17;100389.41;5067949;28;46968;-54
2022/11/09 04:28:44;;;;;;;;;1.00;1.00;;;;;20.90;45.83;100396.38;5074460;28;45164;-54
2022/11/09 04:31:10;;;;;;;;;0.00;0.00;;;;;20.90;45.98;100401.63;5057951;28;45229;-54
2022/11/09 04:33:35;;;;;;;;;0.00;0.00;;;;;20.89;46.42;100405.22;5058137;28;45296;-54
2022/11/09 04:36:02;;;;;;;;;0.00;0.00;;;;;20.88;46.02;100398.28;5057783;28;45255;-54
2022/11/09 04:38:28;;;;;;;;;0.00;0.00;;;;;20.90;46.47;100412.16;5056277;28;45301;-54
2022/11/09 04:40:53;;;;;;;;;0.00;0.00;;;;;20.88;46.30;100423.75;5058415;28;45276;-54
2022/11/09 04:43:18;;;;;;;;;0.00;0.00;;;;;20.87;46.30;100419.44;5057513;28;53747;-55
2022/11/09 04:45:44;;;;;;;;;0.00;0.00;;;;;20.87;46.04;100422.94;5056922;28;59260;-55
2022/11/09 04:48:10;;;;;;;;;0.00;0.00;;;;;20.86;46.13;100426.50;5057152;28;45690;-54
2022/11/09 04:50:36;;;;;;;;;0.00;0.00;;;;;20.86;46.16;100426.50;5057462;28;45366;-55
2022/11/09 04:53:07;;;;;;;;;1.00;0.00;;;;;20.86;46.16;100423.88;5057024;28;45405;-56
2022/11/09 04:55:32;;;;;;;;;0.75;0.75;;;;;20.86;46.00;100429.13;5056505;28;45414;-55
2022/11/09 04:57:58;;;;;;;;;1.00;0.00;;;;;20.84;46.15;100433.66;5055182;28;45431;-55
2022/11/09 05:00:23;;;;;;;;;0.25;0.00;;;;;20.84;46.28;100428.38;5055582;28;45439;-55
2022/11/09 05:02:48;;;;;;;;;0.50;0.50;;;;;20.84;46.44;100428.38;5056690;28;45271;-55
2022/11/09 05:05:14;;;;;;;;;0.00;0.00;;;;;20.84;46.37;100429.22;5055709;28;68002;-55
2022/11/09 05:07:39;;;;;;;;;0.50;0.00;;;;;20.82;46.05;100425.84;5056476;28;58056;-54
2022/11/09 05:10:05;;;;;;;;;0.00;0.00;;;;;20.82;45.97;100425.84;5055275;28;56374;-54
2022/11/09 05:12:30;;;;;;;;;0.00;0.00;;;;;20.81;46.11;100425.94;5056900;28;45576;-55
2022/11/09 05:14:55;;;;;;;;;0.00;0.00;;;;;20.82;45.84;100425.84;5058246;28;61525;-54
2022/11/09 05:17:20;;;;;;;;;1.00;0.00;;;;;20.82;46.11;100427.63;5057563;28;45431;-55
2022/11/09 05:19:46;;;;;;;;;0.00;0.00;;;;;20.81;46.17;100428.56;5069439;28;50794;-54
2022/11/09 05:24:55;;;;;;;;;0.00;0.00;;;;;20.80;46.12;100430.38;5056744;28;45775;-54
2022/11/09 05:27:20;;;;;;;;;1.25;0.00;;;;;20.80;45.92;100426.88;5068156;28;45338;-54
2022/11/09 05:29:45;;;;;;;;;0.00;0.00;;;;;20.79;45.99;100425.19;5080301;28;44714;-56
2022/11/09 05:32:10;;;;;;;;;0.00;0.00;;;;;20.80;46.26;100424.22;5061917;28;45305;-55
2022/11/09 05:34:36;;;;;;;;;0.00;0.00;;;;;20.80;46.30;100426.88;5057202;28;57001;-54
2022/11/09 05:37:01;;;;;;;;;0.00;0.00;;;;;20.78;46.09;100434.03;5056925;28;59249;-55
2022/11/09 05:39:26;;;;;;;;;1.25;0.00;;;;;20.77;46.41;100437.63;5056827;28;45413;-53
2022/11/09 05:41:52;;;;;;;;;1.00;0.00;;;;;20.78;45.94;100440.16;5072095;28;45508;-55
2022/11/09 05:44:17;;;;;;;;;0.50;0.50;;;;;20.78;46.05;100434.88;5072333;28;45319;-53
2022/11/09 05:46:42;;;;;;;;;0.00;0.00;;;;;20.78;46.28;100431.41;5059390;28;45427;-54
2022/11/09 05:49:08;;;;;;;;;0.00;0.00;;;;;20.76;45.82;100430.66;5062617;28;45691;-55
2022/11/09 05:51:33;;;;;;;;;1.00;0.00;;;;;20.78;46.04;100432.25;5056811;28;45458;-55
2022/11/09 05:53:59;;;;;;;;;1.00;0.00;;;;;20.77;46.04;100441.09;5055726;28;46344;-54
2022/11/09 05:56:24;;;;;;;;;1.00;1.00;;;;;20.77;45.82;100440.25;5055813;28;45983;-53
2022/11/09 05:58:49;;;;;;;;;0.00;0.00;;;;;20.77;46.17;100445.53;5055117;28;61924;-55
2022/11/09 06:01:17;;;;;;;;;2.00;0.00;;;;;20.76;46.21;100447.28;5056156;28;45525;-55
2022/11/09 06:03:43;;;;;;;;;0.00;0.00;;;;;20.76;45.95;100454.34;5055875;28;45608;-52
2022/11/09 06:06:10;;;;;;;;;0.00;0.00;;;;;20.77;46.38;100461.31;5055566;28;45492;-54
2022/11/09 06:08:36;;;;;;;;;0.25;0.00;;;;;20.75;46.00;100450.03;5055978;28;45302;-54
2022/11/09 06:11:08;;;;;;;;;3.00;0.00;;;;;20.74;46.42;100449.16;5056022;28;45362;-54
2022/11/09 06:13:34;;;;;;;;;0.00;0.00;;;;;20.73;45.81;100450.06;5055608;28;46774;-52
2022/11/09 06:16:01;;;;;;;;;0.00;0.00;;;;;20.72;45.75;100455.44;5055744;28;45382;-54
2022/11/09 06:18:28;;;;;;;;;0.00;0.00;;;;;20.73;46.29;100446.59;5056508;28;45424;-54
2022/11/09 06:20:57;;;;;;;;;0.50;0.50;;;;;20.72;46.25;100458.09;5061946;28;45283;-54
2022/11/09 06:23:25;;;;;;;;;0.25;0.25;;;;;20.70;45.93;100458.19;5062454;28;45782;-53
2022/11/09 06:25:52;;;;;;;;;0.00;0.00;;;;;20.69;45.93;100462.59;5059380;28;45382;-54
2022/11/09 06:28:17;;;;;;;;;0.00;0.00;;;;;20.68;46.11;100465.34;5057917;28;45296;-53
2022/11/09 06:30:43;;;;;;;;;0.00;0.00;;;;;20.68;46.54;100471.44;5059609;28;45280;-54
2022/11/09 06:33:08;;;;;;;;;0.00;0.00;;;;;20.70;46.31;100474.81;5057837;28;50795;-54
2022/11/09 06:35:34;;;;;;;;;0.00;0.00;;;;;20.69;46.57;100477.56;5071364;28;45452;-54
2022/11/09 06:37:59;;;;;;;;;0.00;0.00;;;;;20.68;46.63;100476.69;5082473;28;44681;-56
2022/11/09 06:40:25;;;;;;;;;0.00;0.00;;;;;20.68;46.31;100476.69;5060289;28;45239;-54
2022/11/09 06:42:51;;;;;;;;;0.75;0.00;;;;;20.68;46.27;100483.75;5058870;28;46278;-54
2022/11/09 06:45:16;;;;;;;;;0.00;0.00;;;;;20.68;46.07;100491.66;5060344;28;45767;-55
2022/11/09 06:47:41;;;;;;;;;0.00;0.00;;;;;20.69;46.32;100496.81;5077034;28;45190;-54
2022/11/09 06:50:08;;;;;;;;;0.00;0.00;;;;;20.69;46.27;100494.19;5060409;28;51477;-55
2022/11/09 06:52:33;;;;;;;;;0.50;0.00;;;;;20.67;46.13;100501.34;5068544;28;46363;-54
2022/11/09 06:54:59;;;;;;;;;0.50;0.50;;;;;20.68;46.38;100505.66;5074192;28;45420;-53
2022/11/09 06:57:24;;;;;;;;;2.00;1.00;;;;;20.69;46.18;100509.16;5060464;28;45388;-50
2022/11/09 06:59:49;;;;;;;;;2.00;0.00;;;;;20.69;46.38;100507.38;5059320;28;45472;-55
2022/11/09 07:02:17;;;;;;;;;0.00;0.00;;;;;20.68;46.30;100508.28;5058193;28;61877;-53
2022/11/09 07:04:42;;;;;;;;;0.00;0.00;;;;;20.69;46.20;100504.72;5058345;28;45338;-54
2022/11/09 07:07:07;;;;;;;;;2.75;1.00;;;;;20.69;46.06;100501.25;5058875;28;45415;-53
2022/11/09 07:09:33;;;;;;;;;0.00;0.00;;;;;20.69;46.24;100510.00;5062512;28;45571;-53
2022/11/09 07:11:58;;;;;;;;;1.00;1.00;;;;;20.68;46.49;100521.47;5067307;28;51318;-53
2022/11/09 07:14:24;;;;;;;;;0.00;0.00;;;;;20.68;46.46;100525.91;5074251;28;45307;-53
2022/11/09 07:16:49;;;;;;;;;2.75;0.00;;;;;20.66;46.49;100526.00;5074939;28;45238;-54
2022/11/09 07:19:15;;;;;;;;;1.00;1.00;;;;;20.67;46.65;100527.66;5071384;28;45552;-53
2022/11/09 07:21:40;;;;;;;;;1.00;1.00;;;;;20.67;46.50;100532.94;5071047;28;46010;-53
2022/11/09 07:24:06;;;;;;;;;0.00;0.00;;;;;20.66;46.52;100539.16;5058439;28;45267;-53
2022/11/09 07:26:31;;;;;;;;;2.00;1.00;;;;;20.67;46.43;100543.47;5059554;28;45434;-52
2022/11/09 07:28:56;;;;;;;;;0.00;0.00;;;;;20.67;46.64;100540.84;5060102;28;45374;-53
2022/11/09 07:31:21;;;;;;;;;1.00;1.00;;;;;20.68;46.39;100554.88;5058554;28;56220;-51
2022/11/09 07:33:49;;;;;;;;;0.00;0.00;;;;;20.68;46.66;100550.44;5070067;28;45236;-52
2022/11/09 07:36:14;;;;;;;;;1.75;1.00;;;;;20.69;46.43;100556.56;5081080;28;45871;-52
2022/11/09 07:38:39;;;;;;;;;1.50;0.50;;;;;20.68;46.44;100550.44;5080866;28;44896;-54
2022/11/09 07:41:05;;;;;;;;;1.00;1.00;;;;;20.67;46.68;100548.75;5077800;28;47204;-53
2022/11/09 07:43:30;;;;;;;;;1.25;0.00;;;;;20.66;46.24;100547.06;5072786;28;45787;-52
2022/11/09 07:45:56;;;;;;;;;1.00;1.00;;;;;20.68;46.58;100549.59;5072450;28;45548;-53
2022/11/09 07:48:21;;;;;;;;;2.00;0.00;;;;;20.68;46.20;100554.88;5058845;28;45533;-57
2022/11/09 07:50:47;;;;;;;;;0.75;0.00;;;;;20.69;46.39;100551.28;5074453;28;55856;-52
2022/11/09 07:53:14;;;;;;;;;1.25;0.25;;;;;20.69;46.57;100556.56;5065929;28;45377;-54
2022/11/09 07:55:40;;;;;;;;;1.50;1.00;;;;;20.66;46.76;100547.06;5063237;28;45339;-49
2022/11/09 07:58:11;;;;;;;;;2.75;0.75;;;;;20.67;46.72;100551.38;5059186;28;45388;-50
2022/11/09 08:00:38;;;;;;;;;0.25;0.25;;;;;20.66;46.71;100562.88;5066493;28;45322;-50
2022/11/09 08:03:04;;;;;;;;;0.25;0.25;;;;;20.69;46.69;100573.19;5059636;28;45280;-52
2022/11/09 08:05:30;;;;;;;;;1.00;1.00;;;;;20.70;46.55;100580.16;5067245;28;45270;-50
2022/11/09 08:07:57;;;;;;;;;0.25;0.25;;;;;20.69;46.79;100575.81;5071653;28;45224;-52
2022/11/09 08:10:24;;;;;;;;;1.00;1.00;;;;;20.69;46.92;100583.72;5057497;28;46598;-54
2022/11/09 08:12:54;;;;;;;;;0.75;0.75;;;;;20.71;46.66;100583.66;5057847;28;45425;-50
2022/11/09 08:15:19;;;;;;;;;1.00;1.00;;;;;20.71;46.78;100586.28;5058030;28;45298;-49
2022/11/09 08:17:45;;;;;;;;;1.00;0.00;;;;;20.73;46.85;100591.47;5057554;28;45536;-52
2022/11/09 08:20:10;;;;;;;;;1.00;1.00;;;;;20.73;47.06;100596.72;5057413;28;46000;-49
2022/11/09 08:22:41;;;;;;;;;0.75;0.75;;;;;20.73;47.22;100596.72;5057191;28;62625;-52
2022/11/09 08:25:07;;;;;;;;;1.00;1.00;;;;;20.69;47.06;100583.72;5070892;28;45336;-52
2022/11/09 08:27:38;;;;;;;;;0.50;0.50;;;;;20.72;46.96;100588.00;5085089;28;44856;-52
2022/11/09 08:30:10;;;;;;;;;2.00;2.00;;;;;20.72;46.89;100588.00;5075175;28;46344;-51
2022/11/09 08:32:35;;;;;;;;;0.50;0.00;;;;;20.70;47.09;100585.44;5063182;28;45462;-47
2022/11/09 08:35:02;;;;;;;;;1.00;1.00;;;;;20.73;47.49;100594.09;5060322;28;45251;-49
2022/11/09 08:37:27;;;;;;;;;0.00;0.00;;;;;20.73;47.14;100600.19;5057347;28;45551;-49
2022/11/09 08:39:53;;;;;;;;;1.50;1.00;;;;;20.74;47.05;100598.41;5056216;28;46017;-48
2022/11/09 08:42:18;;;;;;;;;1.50;1.50;;;;;20.69;46.80;100596.91;5056484;28;60156;-48
2022/11/09 08:44:43;;;;;;;;;0.75;0.75;;;;;20.71;47.00;100604.72;5055323;28;45282;-48
2022/11/09 08:47:08;;;;;;;;;1.00;0.00;;;;;20.70;46.79;100601.22;5056827;28;45543;-52
2022/11/09 08:49:34;;;;;;;;;1.00;0.00;;;;;20.72;47.18;100614.31;5055270;28;46261;-51
2022/11/09 08:52:00;;;;;;;;;1.00;1.00;;;;;20.72;46.73;100613.47;5056638;28;45409;-51
2022/11/09 08:54:25;;;;;;;;;1.00;0.00;;;;;20.72;46.79;100613.47;5056849;28;45304;-51
2022/11/09 08:56:54;;;;;;;;;1.00;1.00;;;;;20.72;47.19;100619.59;5057501;28;45516;-50
2022/11/09 08:59:20;;;;;;;;;3.00;1.00;;;;;20.70;47.06;100627.56;5057204;28;45401;-51
2022/11/09 09:01:45;;;;;;;;;2.00;1.00;;;;;20.72;46.99;100631.91;5056952;28;45418;-49
2022/11/09 09:04:10;;;;;;;;;1.00;1.00;;;;;20.70;47.39;100627.56;5060828;28;45290;-53
2022/11/09 09:06:35;;;;;;;;;1.50;0.00;;;;;20.74;47.07;100640.56;5061543;28;45574;-52
2022/11/09 09:09:01;;;;;;;;;0.75;0.75;;;;;20.73;47.25;100638.88;5058912;28;46616;-53
2022/11/09 09:11:26;;;;;;;;;3.00;1.00;;;;;20.72;47.03;100639.78;5057527;28;45305;-50
2022/11/09 09:13:51;;;;;;;;;1.50;1.00;;;;;20.73;46.92;100636.22;5057556;28;45284;-51
2022/11/09 09:16:17;;;;;;;;;2.00;1.00;;;;;20.73;47.25;100636.22;5057207;28;45605;-50
2022/11/09 09:18:42;;;;;;;;;1.00;1.00;;;;;20.73;46.87;100644.13;5057994;28;46906;-49
2022/11/09 09:21:09;;;;;;;;;4.00;1.00;;;;;20.70;46.91;100646.00;5063742;28;45547;-50
2022/11/09 09:23:34;;;;;;;;;2.25;1.00;;;;;20.71;47.42;100649.50;5069540;28;44753;-50
2022/11/09 09:26:00;;;;;;;;;1.00;1.00;;;;;20.70;47.33;100643.38;5078387;28;45660;-49
2022/11/09 09:28:26;;;;;;;;;1.00;0.25;;;;;20.70;47.24;100646.00;5062934;28;45369;-52
2022/11/09 09:30:52;;;;;;;;;3.25;1.00;;;;;20.70;47.21;100647.81;5056722;28;45354;-49
2022/11/09 09:33:17;;;;;;;;;1.00;1.00;;;;;20.71;47.20;100652.13;5056507;28;45418;-52
2022/11/09 09:35:43;;;;;;;;;1.50;0.00;;;;;20.69;47.55;100652.19;5057079;28;45353;-50
2022/11/09 09:38:08;;;;;;;;;2.50;1.00;;;;;20.70;47.30;100659.16;5060418;28;45727;-49
2022/11/09 09:40:41;;;;;;;;;3.50;1.00;;;;;20.72;47.26;100663.50;5058729;28;45184;-51
2022/11/09 09:43:14;;;;;;;;;0.75;0.50;;;;;20.73;47.73;100662.56;5055995;28;45480;-49
2022/11/09 09:45:50;;;;;;;;;0.75;0.75;;;;;20.71;47.47;100654.75;5056259;28;45298;-51
2022/11/09 09:48:15;;;;;;;;;4.00;1.25;;;;;20.72;47.37;100660.88;5055960;28;46092;-46
2022/11/09 09:51:01;;;;;;;;;3.00;1.00;;;;;20.74;47.37;100669.53;5055995;28;45461;-47
2022/11/09 09:53:44;;;;;;;;;0.50;0.50;;;;;20.74;47.28;100672.16;5056114;28;45417;-48
2022/11/09 09:56:22;;;;;;;;;2.00;1.00;;;;;20.73;47.48;100668.66;5058598;28;45524;-55
2022/11/09 09:58:56;;;;;;;;;1.25;1.25;;;;;20.73;47.39;100668.66;5059322;28;47185;-52
2022/11/09 10:01:26;;;;;;;;;1.00;1.00;;;;;20.76;47.13;100671.16;5059633;28;45373;-53
2022/11/09 10:03:52;;;;;;;;;0.00;0.00;;;;;20.75;47.21;100682.63;5059928;28;45389;-53
2022/11/09 10:06:32;;;;;;;;;0.25;0.00;;;;;20.78;47.32;100682.47;5059871;28;45589;-52
2022/11/09 10:09:17;;;;;;;;;1.00;1.00;;;;;20.78;47.08;100681.63;5060227;28;46040;-52
2022/11/09 10:12:03;;;;;;;;;0.75;0.75;;;;;20.78;47.26;100686.91;5065246;28;45359;-51
2022/11/09 10:14:53;;;;;;;;;0.75;0.75;;;;;20.77;47.34;100701.84;5063366;28;45294;-52
2022/11/09 10:17:26;;;;;;;;;1.25;1.00;;;;;20.76;47.36;100704.56;5061294;28;45326;-53
2022/11/09 10:20:20;;;;;;;;;0.75;0.75;;;;;20.76;47.27;100704.56;5064514;28;46134;-51
2022/11/09 10:23:01;;;;;;;;;1.00;1.00;;;;;20.77;47.21;100709.72;5069635;28;45184;-56
2022/11/09 10:25:30;;;;;;;;;1.00;1.00;;;;;20.78;46.95;100718.50;5082544;28;45386;-50
2022/11/09 10:27:59;;;;;;;;;2.50;1.00;;;;;20.79;47.26;100722.81;5085906;28;44749;-51
2022/11/09 10:30:27;;;;;;;;;1.00;1.00;;;;;20.80;47.29;100719.22;5058317;28;45462;-53
2022/11/09 10:33:09;;;;;;;;;3.25;1.00;;;;;20.78;47.46;100715.88;5052026;28;45361;-53
2022/11/09 10:35:43;;;;;;;;;1.25;1.00;;;;;20.78;47.22;100721.97;5038473;28;45444;-56
2022/11/09 10:38:14;;;;;;;;;1.50;0.00;;;;;20.76;47.26;100725.63;5039090;28;45406;-51
2022/11/09 10:40:48;;;;;;;;;1.00;1.00;;;;;20.77;47.28;100732.59;5055771;28;47043;-53
2022/11/09 10:43:14;;;;;;;;;1.75;1.00;;;;;20.76;47.12;100720.38;5058833;28;45671;-53
2022/11/09 10:45:42;;;;;;;;;2.50;1.00;;;;;20.77;47.23;100719.44;5079270;28;45245;-51
2022/11/09 10:48:09;;;;;;;;;2.00;1.00;;;;;20.76;47.47;100723.00;5061242;28;45504;-55
2022/11/09 10:50:52;;;;;;;;;1.00;1.00;;;;;20.77;47.50;100729.97;5058724;28;47039;-55
2022/11/09 10:53:29;;;;;;;;;2.75;1.75;;;;;20.77;47.30;100722.06;5069810;28;45955;-54
2022/11/09 10:56:14;;;;;;;;;1.00;1.00;;;;;20.75;47.50;100731.84;5067768;28;45311;-54
2022/11/09 10:58:47;;;;;;;;;2.00;1.00;;;;;20.78;47.30;100739.56;5065754;28;45778;-51
2022/11/09 11:01:21;;;;;;;;;1.00;1.00;;;;;20.78;47.39;100731.66;5058741;28;46838;-49
2022/11/09 11:03:54;;;;;;;;;1.00;0.50;;;;;20.79;47.49;100743.88;5058312;28;45904;-51
2022/11/09 11:06:20;;;;;;;;;1.75;1.50;;;;;20.80;47.75;100749.06;5057230;28;45229;-53
2022/11/09 11:08:51;;;;;;;;;0.00;0.00;;;;;20.80;47.29;100748.22;5058676;28;45465;-52
2022/11/09 11:11:30;;;;;;;;;1.00;1.00;;;;;20.78;47.69;100744.84;5062879;28;46393;-49
2022/11/09 11:14:26;;;;;;;;;2.00;1.50;;;;;20.79;47.08;100755.28;5080480;28;44947;-54
2022/11/09 11:16:52;;;;;;;;;1.00;1.00;;;;;20.79;47.01;100757.03;5059378;28;45248;-53
2022/11/09 11:19:40;;;;;;;;;1.00;1.00;;;;;20.80;47.25;100764.00;5059086;28;45576;-55
2022/11/09 11:22:11;;;;;;;;;0.00;0.00;;;;;20.79;47.24;100767.56;5058207;28;47075;-54
2022/11/09 11:24:43;;;;;;;;;1.25;1.00;;;;;20.79;47.31;100751.78;5058580;28;45224;-53
2022/11/09 11:27:30;;;;;;;;;1.00;1.00;;;;;20.76;47.25;100752.81;5059238;28;45228;-53
2022/11/09 11:30:08;;;;;;;;;2.00;0.00;;;;;20.77;47.14;100749.25;5059938;28;45229;-53